sensor_id;sensor_type;location;lat;lon;timestamp;temperature;humidity
74940;HTU21D;63505;45.226;37.908;2022-10-16T00:00:38;8.75;64.90
74940;HTU21D;63505;45.226;37.908;2022-10-16T00:03:05;8.72;64.98
74940;HTU21D;63505;45.226;37.908;2022-10-16T00:05:32;8.65;65.09
74940;HTU21D;63505;45.226;37.908;2022-10-16T00:07:58;8.63;65.16
74940;HTU21D;63505;45.226;37.908;2022-10-16T00:10:24;8.60;65.22
74940;HTU21D;63505;45.226;37.908;2022-10-16T00:12:50;8.57;65.27
74940;HTU21D;63505;45.226;37.908;2022-10-16T00:15:16;8.53;65.33
74940;HTU21D;63505;45.226;37.908;2022-10-16T00:17:42;8.50;65.40
74940;HTU21D;63505;45.226;37.908;2022-10-16T00:20:08;8.46;65.53
74940;HTU21D;63505;45.226;37.908;2022-10-16T00:22:34;8.45;65.62
74940;HTU21D;63505;45.226;37.908;2022-10-16T00:25:00;8.47;65.62
74940;HTU21D;63505;45.226;37.908;2022-10-16T00:27:26;8.45;65.59
74940;HTU21D;63505;45.226;37.908;2022-10-16T00:29:52;8.46;65.60
74940;HTU21D;63505;45.226;37.908;2022-10-16T00:32:19;8.47;65.56
74940;HTU21D;63505;45.226;37.908;2022-10-16T00:34:46;8.44;65.60
74940;HTU21D;63505;45.226;37.908;2022-10-16T00:37:12;8.44;65.58
74940;HTU21D;63505;45.226;37.908;2022-10-16T00:39:38;8.45;65.57
74940;HTU21D;63505;45.226;37.908;2022-10-16T00:42:05;8.43;65.60
74940;HTU21D;63505;45.226;37.908;2022-10-16T00:45:00;8.43;65.61
74940;HTU21D;63505;45.226;37.908;2022-10-16T00:47:30;8.43;65.53
74940;HTU21D;63505;45.226;37.908;2022-10-16T00:50:09;8.45;65.53
74940;HTU21D;63505;45.226;37.908;2022-10-16T00:52:40;8.41;65.53
74940;HTU21D;63505;45.226;37.908;2022-10-16T00:55:08;8.38;65.59
74940;HTU21D;63505;45.226;37.908;2022-10-16T00:57:35;8.36;65.62
74940;HTU21D;63505;45.226;37.908;2022-10-16T01:00:06;8.36;65.64
74940;HTU21D;63505;45.226;37.908;2022-10-16T01:02:32;8.34;65.67
74940;HTU21D;63505;45.226;37.908;2022-10-16T01:04:58;8.29;65.73
74940;HTU21D;63505;45.226;37.908;2022-10-16T01:07:51;8.27;65.85
74940;HTU21D;63505;45.226;37.908;2022-10-16T01:10:36;8.22;65.88
74940;HTU21D;63505;45.226;37.908;2022-10-16T01:13:07;8.19;65.92
74940;HTU21D;63505;45.226;37.908;2022-10-16T01:15:40;8.17;65.97
74940;HTU21D;63505;45.226;37.908;2022-10-16T01:18:32;8.16;66.02
74940;HTU21D;63505;45.226;37.908;2022-10-16T01:21:03;8.15;66.01
74940;HTU21D;63505;45.226;37.908;2022-10-16T01:31:23;8.00;66.24
74940;HTU21D;63505;45.226;37.908;2022-10-16T01:34:25;7.98;66.39
74940;HTU21D;63505;45.226;37.908;2022-10-16T01:37:04;7.97;66.37
74940;HTU21D;63505;45.226;37.908;2022-10-16T01:39:34;7.96;66.34
74940;HTU21D;63505;45.226;37.908;2022-10-16T01:42:08;7.92;66.37
74940;HTU21D;63505;45.226;37.908;2022-10-16T01:44:36;7.86;66.43
74940;HTU21D;63505;45.226;37.908;2022-10-16T01:47:04;7.81;66.58
74940;HTU21D;63505;45.226;37.908;2022-10-16T01:49:33;7.76;66.65
74940;HTU21D;63505;45.226;37.908;2022-10-16T01:52:03;7.69;66.79
74940;HTU21D;63505;45.226;37.908;2022-10-16T01:54:32;7.57;67.04
74940;HTU21D;63505;45.226;37.908;2022-10-16T01:56:59;7.48;67.23
74940;HTU21D;63505;45.226;37.908;2022-10-16T01:59:28;7.42;67.37
74940;HTU21D;63505;45.226;37.908;2022-10-16T02:01:59;7.38;67.45
74940;HTU21D;63505;45.226;37.908;2022-10-16T02:04:37;7.33;67.49
74940;HTU21D;63505;45.226;37.908;2022-10-16T02:07:04;7.29;67.52
74940;HTU21D;63505;45.226;37.908;2022-10-16T02:09:33;7.26;67.57
74940;HTU21D;63505;45.226;37.908;2022-10-16T02:12:03;7.22;67.62
74940;HTU21D;63505;45.226;37.908;2022-10-16T02:14:32;7.15;67.69
74940;HTU21D;63505;45.226;37.908;2022-10-16T02:16:58;7.09;67.80
74940;HTU21D;63505;45.226;37.908;2022-10-16T02:19:24;7.10;67.83
74940;HTU21D;63505;45.226;37.908;2022-10-16T02:21:54;7.10;67.84
74940;HTU21D;63505;45.226;37.908;2022-10-16T02:27:05;7.09;67.84
74940;HTU21D;63505;45.226;37.908;2022-10-16T02:29:37;7.13;67.76
74940;HTU21D;63505;45.226;37.908;2022-10-16T02:32:06;7.14;67.72
74940;HTU21D;63505;45.226;37.908;2022-10-16T02:34:33;7.17;67.70
74940;HTU21D;63505;45.226;37.908;2022-10-16T02:37:01;7.19;67.69
74940;HTU21D;63505;45.226;37.908;2022-10-16T02:39:28;7.23;67.68
74940;HTU21D;63505;45.226;37.908;2022-10-16T02:41:55;7.27;67.64
74940;HTU21D;63505;45.226;37.908;2022-10-16T02:44:21;7.27;67.65
74940;HTU21D;63505;45.226;37.908;2022-10-16T02:46:47;7.30;67.66
74940;HTU21D;63505;45.226;37.908;2022-10-16T02:49:13;7.31;67.69
74940;HTU21D;63505;45.226;37.908;2022-10-16T02:51:39;7.29;67.72
74940;HTU21D;63505;45.226;37.908;2022-10-16T02:54:05;7.26;67.82
74940;HTU21D;63505;45.226;37.908;2022-10-16T02:56:31;7.23;67.93
74940;HTU21D;63505;45.226;37.908;2022-10-16T02:58:57;7.22;67.99
74940;HTU21D;63505;45.226;37.908;2022-10-16T03:01:23;7.24;68.04
74940;HTU21D;63505;45.226;37.908;2022-10-16T03:03:49;7.23;68.08
74940;HTU21D;63505;45.226;37.908;2022-10-16T03:06:15;7.22;68.17
74940;HTU21D;63505;45.226;37.908;2022-10-16T03:08:41;7.23;68.26
74940;HTU21D;63505;45.226;37.908;2022-10-16T03:11:07;7.24;68.26
74940;HTU21D;63505;45.226;37.908;2022-10-16T03:13:33;7.27;68.31
74940;HTU21D;63505;45.226;37.908;2022-10-16T03:15:59;7.29;68.34
74940;HTU21D;63505;45.226;37.908;2022-10-16T03:18:25;7.31;68.39
74940;HTU21D;63505;45.226;37.908;2022-10-16T03:20:51;7.32;68.39
74940;HTU21D;63505;45.226;37.908;2022-10-16T03:23:17;7.33;68.39
74940;HTU21D;63505;45.226;37.908;2022-10-16T03:25:43;7.34;68.46
74940;HTU21D;63505;45.226;37.908;2022-10-16T03:28:09;7.34;68.55
74940;HTU21D;63505;45.226;37.908;2022-10-16T03:30:35;7.33;68.62
74940;HTU21D;63505;45.226;37.908;2022-10-16T03:33:01;7.34;68.69
74940;HTU21D;63505;45.226;37.908;2022-10-16T03:35:26;7.38;68.72
74940;HTU21D;63505;45.226;37.908;2022-10-16T03:37:52;7.40;68.76
74940;HTU21D;63505;45.226;37.908;2022-10-16T03:40:18;7.39;68.83
74940;HTU21D;63505;45.226;37.908;2022-10-16T03:42:45;7.39;68.94
74940;HTU21D;63505;45.226;37.908;2022-10-16T03:45:11;7.38;69.03
74940;HTU21D;63505;45.226;37.908;2022-10-16T03:47:37;7.39;69.10
74940;HTU21D;63505;45.226;37.908;2022-10-16T03:50:04;7.41;69.21
74940;HTU21D;63505;45.226;37.908;2022-10-16T03:52:30;7.42;69.30
74940;HTU21D;63505;45.226;37.908;2022-10-16T03:54:57;7.43;69.37
74940;HTU21D;63505;45.226;37.908;2022-10-16T03:57:24;7.47;69.39
74940;HTU21D;63505;45.226;37.908;2022-10-16T03:59:49;7.50;69.39
74940;HTU21D;63505;45.226;37.908;2022-10-16T04:02:16;7.56;69.36
74940;HTU21D;63505;45.226;37.908;2022-10-16T04:04:42;7.61;69.34
74940;HTU21D;63505;45.226;37.908;2022-10-16T04:07:08;7.65;69.33
74940;HTU21D;63505;45.226;37.908;2022-10-16T04:09:34;7.70;69.36
74940;HTU21D;63505;45.226;37.908;2022-10-16T04:12:00;7.77;69.42
74940;HTU21D;63505;45.226;37.908;2022-10-16T04:14:25;7.85;69.37
74940;HTU21D;63505;45.226;37.908;2022-10-16T04:16:51;8.03;69.45
74940;HTU21D;63505;45.226;37.908;2022-10-16T04:19:17;8.26;69.43
74940;HTU21D;63505;45.226;37.908;2022-10-16T04:21:43;8.57;69.35
74940;HTU21D;63505;45.226;37.908;2022-10-16T04:24:09;8.81;69.15
74940;HTU21D;63505;45.226;37.908;2022-10-16T04:26:37;9.03;69.02
74940;HTU21D;63505;45.226;37.908;2022-10-16T04:29:03;9.26;68.87
74940;HTU21D;63505;45.226;37.908;2022-10-16T04:31:29;9.50;68.76
74940;HTU21D;63505;45.226;37.908;2022-10-16T04:33:55;9.64;68.67
74940;HTU21D;63505;45.226;37.908;2022-10-16T04:36:21;9.74;68.69
74940;HTU21D;63505;45.226;37.908;2022-10-16T04:38:46;9.82;68.81
74940;HTU21D;63505;45.226;37.908;2022-10-16T04:41:12;9.84;68.78
74940;HTU21D;63505;45.226;37.908;2022-10-16T04:43:38;9.89;68.91
74940;HTU21D;63505;45.226;37.908;2022-10-16T04:46:04;9.92;68.99
74940;HTU21D;63505;45.226;37.908;2022-10-16T04:48:31;9.98;68.97
74940;HTU21D;63505;45.226;37.908;2022-10-16T04:50:57;9.99;69.12
74940;HTU21D;63505;45.226;37.908;2022-10-16T04:53:23;9.94;69.23
74940;HTU21D;63505;45.226;37.908;2022-10-16T04:55:50;9.94;69.35
74940;HTU21D;63505;45.226;37.908;2022-10-16T04:58:16;9.84;69.49
74940;HTU21D;63505;45.226;37.908;2022-10-16T05:00:44;9.82;69.64
74940;HTU21D;63505;45.226;37.908;2022-10-16T05:03:10;9.81;69.77
74940;HTU21D;63505;45.226;37.908;2022-10-16T05:05:36;9.81;69.92
74940;HTU21D;63505;45.226;37.908;2022-10-16T05:08:02;9.88;69.91
74940;HTU21D;63505;45.226;37.908;2022-10-16T05:10:28;9.92;69.94
74940;HTU21D;63505;45.226;37.908;2022-10-16T05:12:54;9.99;69.94
74940;HTU21D;63505;45.226;37.908;2022-10-16T05:15:20;10.09;69.87
74940;HTU21D;63505;45.226;37.908;2022-10-16T05:17:46;10.13;69.87
74940;HTU21D;63505;45.226;37.908;2022-10-16T05:20:12;10.16;69.90
74940;HTU21D;63505;45.226;37.908;2022-10-16T05:22:38;10.20;69.94
74940;HTU21D;63505;45.226;37.908;2022-10-16T05:25:04;10.24;70.00
74940;HTU21D;63505;45.226;37.908;2022-10-16T05:27:30;10.29;70.03
74940;HTU21D;63505;45.226;37.908;2022-10-16T05:29:56;10.37;70.03
74940;HTU21D;63505;45.226;37.908;2022-10-16T05:32:22;10.43;69.94
74940;HTU21D;63505;45.226;37.908;2022-10-16T05:34:48;10.52;69.90
74940;HTU21D;63505;45.226;37.908;2022-10-16T05:37:14;10.60;69.87
74940;HTU21D;63505;45.226;37.908;2022-10-16T05:39:40;10.68;69.94
74940;HTU21D;63505;45.226;37.908;2022-10-16T05:42:06;10.74;69.91
74940;HTU21D;63505;45.226;37.908;2022-10-16T05:44:32;10.79;69.87
74940;HTU21D;63505;45.226;37.908;2022-10-16T05:46:58;10.83;69.89
74940;HTU21D;63505;45.226;37.908;2022-10-16T05:49:24;10.87;69.88
74940;HTU21D;63505;45.226;37.908;2022-10-16T05:51:50;10.95;69.85
74940;HTU21D;63505;45.226;37.908;2022-10-16T05:54:16;11.01;69.80
74940;HTU21D;63505;45.226;37.908;2022-10-16T05:56:42;11.08;69.73
74940;HTU21D;63505;45.226;37.908;2022-10-16T05:59:09;11.17;69.68
74940;HTU21D;63505;45.226;37.908;2022-10-16T06:01:35;11.24;69.65
74940;HTU21D;63505;45.226;37.908;2022-10-16T06:04:01;11.31;69.64
74940;HTU21D;63505;45.226;37.908;2022-10-16T06:06:28;11.40;69.57
74940;HTU21D;63505;45.226;37.908;2022-10-16T06:08:56;11.48;69.51
74940;HTU21D;63505;45.226;37.908;2022-10-16T06:11:25;11.58;69.50
74940;HTU21D;63505;45.226;37.908;2022-10-16T06:13:53;11.66;69.56
74940;HTU21D;63505;45.226;37.908;2022-10-16T06:16:19;11.70;69.62
74940;HTU21D;63505;45.226;37.908;2022-10-16T06:18:46;11.77;69.68
74940;HTU21D;63505;45.226;37.908;2022-10-16T06:21:17;11.87;69.66
74940;HTU21D;63505;45.226;37.908;2022-10-16T06:23:44;11.99;69.61
74940;HTU21D;63505;45.226;37.908;2022-10-16T06:26:14;12.10;69.58
74940;HTU21D;63505;45.226;37.908;2022-10-16T06:28:40;12.16;69.52
74940;HTU21D;63505;45.226;37.908;2022-10-16T06:31:08;12.23;69.48
74940;HTU21D;63505;45.226;37.908;2022-10-16T06:33:35;12.29;69.47
74940;HTU21D;63505;45.226;37.908;2022-10-16T06:38:28;12.56;69.36
74940;HTU21D;63505;45.226;37.908;2022-10-16T06:40:54;12.73;69.24
74940;HTU21D;63505;45.226;37.908;2022-10-16T06:43:20;12.90;69.08
74940;HTU21D;63505;45.226;37.908;2022-10-16T06:45:54;13.06;68.98
74940;HTU21D;63505;45.226;37.908;2022-10-16T06:48:20;13.14;68.87
74940;HTU21D;63505;45.226;37.908;2022-10-16T06:51:00;13.26;68.86
74940;HTU21D;63505;45.226;37.908;2022-10-16T06:53:28;13.37;68.68
74940;HTU21D;63505;45.226;37.908;2022-10-16T06:55:55;13.46;68.58
74940;HTU21D;63505;45.226;37.908;2022-10-16T06:58:21;13.55;68.52
74940;HTU21D;63505;45.226;37.908;2022-10-16T07:00:47;13.63;68.46
74940;HTU21D;63505;45.226;37.908;2022-10-16T07:03:14;13.73;68.41
74940;HTU21D;63505;45.226;37.908;2022-10-16T07:05:41;13.81;68.40
74940;HTU21D;63505;45.226;37.908;2022-10-16T07:08:08;13.88;68.36
74940;HTU21D;63505;45.226;37.908;2022-10-16T07:10:35;13.92;68.33
74940;HTU21D;63505;45.226;37.908;2022-10-16T07:13:01;13.94;68.31
74940;HTU21D;63505;45.226;37.908;2022-10-16T07:15:27;13.98;68.42
74940;HTU21D;63505;45.226;37.908;2022-10-16T07:17:53;14.04;68.37
74940;HTU21D;63505;45.226;37.908;2022-10-16T07:20:19;14.11;68.36
74940;HTU21D;63505;45.226;37.908;2022-10-16T07:22:45;14.21;68.35
74940;HTU21D;63505;45.226;37.908;2022-10-16T07:25:11;14.33;68.23
74940;HTU21D;63505;45.226;37.908;2022-10-16T07:27:38;14.43;68.14
74940;HTU21D;63505;45.226;37.908;2022-10-16T07:30:05;14.55;68.14
74940;HTU21D;63505;45.226;37.908;2022-10-16T07:32:31;14.70;67.99
74940;HTU21D;63505;45.226;37.908;2022-10-16T07:34:58;14.84;67.77
74940;HTU21D;63505;45.226;37.908;2022-10-16T07:37:24;14.87;67.46
74940;HTU21D;63505;45.226;37.908;2022-10-16T07:39:50;14.91;67.36
74940;HTU21D;63505;45.226;37.908;2022-10-16T07:42:15;14.97;67.34
74940;HTU21D;63505;45.226;37.908;2022-10-16T07:44:41;15.12;67.34
74940;HTU21D;63505;45.226;37.908;2022-10-16T07:47:07;15.26;67.05
74940;HTU21D;63505;45.226;37.908;2022-10-16T07:49:33;15.34;66.78
74940;HTU21D;63505;45.226;37.908;2022-10-16T07:51:59;15.43;66.62
74940;HTU21D;63505;45.226;37.908;2022-10-16T07:54:25;15.55;66.35
74940;HTU21D;63505;45.226;37.908;2022-10-16T07:56:51;15.70;66.30
74940;HTU21D;63505;45.226;37.908;2022-10-16T07:59:17;15.89;66.02
74940;HTU21D;63505;45.226;37.908;2022-10-16T08:01:43;16.02;65.71
74940;HTU21D;63505;45.226;37.908;2022-10-16T08:04:09;16.22;65.58
74940;HTU21D;63505;45.226;37.908;2022-10-16T08:06:38;16.42;65.27
74940;HTU21D;63505;45.226;37.908;2022-10-16T08:09:05;16.57;64.95
74940;HTU21D;63505;45.226;37.908;2022-10-16T08:11:31;16.72;64.52
74940;HTU21D;63505;45.226;37.908;2022-10-16T08:13:57;16.90;64.29
74940;HTU21D;63505;45.226;37.908;2022-10-16T08:16:23;16.96;64.04
74940;HTU21D;63505;45.226;37.908;2022-10-16T08:18:49;17.06;63.48
74940;HTU21D;63505;45.226;37.908;2022-10-16T08:21:20;17.22;63.33
74940;HTU21D;63505;45.226;37.908;2022-10-16T08:23:46;17.45;63.21
74940;HTU21D;63505;45.226;37.908;2022-10-16T08:26:13;17.69;62.18
74940;HTU21D;63505;45.226;37.908;2022-10-16T08:28:39;17.85;61.81
74940;HTU21D;63505;45.226;37.908;2022-10-16T08:31:07;17.97;61.25
74940;HTU21D;63505;45.226;37.908;2022-10-16T08:33:33;18.11;61.28
74940;HTU21D;63505;45.226;37.908;2022-10-16T08:36:01;18.17;60.21
74940;HTU21D;63505;45.226;37.908;2022-10-16T08:38:27;17.88;60.49
74940;HTU21D;63505;45.226;37.908;2022-10-16T08:40:56;17.69;60.93
74940;HTU21D;63505;45.226;37.908;2022-10-16T08:48:57;17.38;62.66
74940;HTU21D;63505;45.226;37.908;2022-10-16T08:51:27;17.61;62.12
74940;HTU21D;63505;45.226;37.908;2022-10-16T08:53:57;17.72;61.50
74940;HTU21D;63505;45.226;37.908;2022-10-16T08:56:25;17.67;61.61
74940;HTU21D;63505;45.226;37.908;2022-10-16T08:58:52;17.60;61.50
74940;HTU21D;63505;45.226;37.908;2022-10-16T09:01:20;17.55;61.83
74940;HTU21D;63505;45.226;37.908;2022-10-16T09:06:52;17.56;62.02
74940;HTU21D;63505;45.226;37.908;2022-10-16T09:09:39;17.52;62.02
74940;HTU21D;63505;45.226;37.908;2022-10-16T09:23:37;17.73;62.19
74940;HTU21D;63505;45.226;37.908;2022-10-16T09:26:05;17.85;62.26
74940;HTU21D;63505;45.226;37.908;2022-10-16T09:28:31;17.98;61.98
74940;HTU21D;63505;45.226;37.908;2022-10-16T09:30:57;18.09;61.76
74940;HTU21D;63505;45.226;37.908;2022-10-16T09:33:33;18.28;61.55
74940;HTU21D;63505;45.226;37.908;2022-10-16T09:36:03;18.56;61.44
74940;HTU21D;63505;45.226;37.908;2022-10-16T09:38:32;18.66;60.37
74940;HTU21D;63505;45.226;37.908;2022-10-16T09:41:17;18.63;60.41
74940;HTU21D;63505;45.226;37.908;2022-10-16T09:44:01;18.55;60.18
74940;HTU21D;63505;45.226;37.908;2022-10-16T09:46:31;18.54;60.39
74940;HTU21D;63505;45.226;37.908;2022-10-16T09:48:59;18.53;60.43
74940;HTU21D;63505;45.226;37.908;2022-10-16T09:51:31;18.57;60.47
74940;HTU21D;63505;45.226;37.908;2022-10-16T09:54:01;18.86;60.16
74940;HTU21D;63505;45.226;37.908;2022-10-16T09:56:31;19.09;59.61
74940;HTU21D;63505;45.226;37.908;2022-10-16T09:59:00;19.26;59.15
74940;HTU21D;63505;45.226;37.908;2022-10-16T10:01:36;19.20;58.74
74940;HTU21D;63505;45.226;37.908;2022-10-16T10:04:04;19.05;58.82
74940;HTU21D;63505;45.226;37.908;2022-10-16T10:07:14;18.91;58.99
74940;HTU21D;63505;45.226;37.908;2022-10-16T10:09:27;18.79;59.25
74940;HTU21D;63505;45.226;37.908;2022-10-16T10:11:58;18.69;59.57
74940;HTU21D;63505;45.226;37.908;2022-10-16T10:14:35;18.65;59.75
74940;HTU21D;63505;45.226;37.908;2022-10-16T10:17:17;18.66;59.47
74940;HTU21D;63505;45.226;37.908;2022-10-16T10:22:25;18.74;59.74
74940;HTU21D;63505;45.226;37.908;2022-10-16T10:25:04;18.91;59.52
74940;HTU21D;63505;45.226;37.908;2022-10-16T10:33:39;19.11;59.44
74940;HTU21D;63505;45.226;37.908;2022-10-16T10:38:51;19.71;58.26
74940;HTU21D;63505;45.226;37.908;2022-10-16T10:45:00;20.20;56.97
74940;HTU21D;63505;45.226;37.908;2022-10-16T10:47:13;20.10;56.71
74940;HTU21D;63505;45.226;37.908;2022-10-16T11:04:03;19.62;57.45
74940;HTU21D;63505;45.226;37.908;2022-10-16T11:06:39;19.63;57.51
74940;HTU21D;63505;45.226;37.908;2022-10-16T11:09:21;19.70;57.52
74940;HTU21D;63505;45.226;37.908;2022-10-16T11:12:05;19.76;57.49
74940;HTU21D;63505;45.226;37.908;2022-10-16T11:17:38;19.67;57.29
74940;HTU21D;63505;45.226;37.908;2022-10-16T11:21:20;19.75;57.29
74940;HTU21D;63505;45.226;37.908;2022-10-16T11:23:51;19.68;57.06
74940;HTU21D;63505;45.226;37.908;2022-10-16T11:26:23;19.61;57.27
74940;HTU21D;63505;45.226;37.908;2022-10-16T11:28:51;19.52;57.17
74940;HTU21D;63505;45.226;37.908;2022-10-16T11:31:57;19.35;57.36
74940;HTU21D;63505;45.226;37.908;2022-10-16T11:34:38;19.23;57.62
74940;HTU21D;63505;45.226;37.908;2022-10-16T11:37:38;19.20;57.98
74940;HTU21D;63505;45.226;37.908;2022-10-16T11:40:24;19.13;57.96
74940;HTU21D;63505;45.226;37.908;2022-10-16T11:43:17;19.06;58.12
74940;HTU21D;63505;45.226;37.908;2022-10-16T11:45:49;19.05;58.16
74940;HTU21D;63505;45.226;37.908;2022-10-16T11:48:32;19.07;58.25
74940;HTU21D;63505;45.226;37.908;2022-10-16T11:51:14;19.08;58.22
74940;HTU21D;63505;45.226;37.908;2022-10-16T11:53:52;19.07;58.33
74940;HTU21D;63505;45.226;37.908;2022-10-16T11:56:20;19.08;58.37
74940;HTU21D;63505;45.226;37.908;2022-10-16T11:58:57;19.06;58.44
74940;HTU21D;63505;45.226;37.908;2022-10-16T12:01:30;19.05;58.57
74940;HTU21D;63505;45.226;37.908;2022-10-16T12:04:15;19.01;58.66
74940;HTU21D;63505;45.226;37.908;2022-10-16T12:07:01;18.94;58.61
74940;HTU21D;63505;45.226;37.908;2022-10-16T12:09:30;18.88;58.68
74940;HTU21D;63505;45.226;37.908;2022-10-16T12:11:57;18.83;58.77
74940;HTU21D;63505;45.226;37.908;2022-10-16T12:14:34;18.79;58.79
74940;HTU21D;63505;45.226;37.908;2022-10-16T12:17:20;18.74;58.96
74940;HTU21D;63505;45.226;37.908;2022-10-16T12:23:03;18.72;59.06
74940;HTU21D;63505;45.226;37.908;2022-10-16T12:25:31;18.74;59.15
74940;HTU21D;63505;45.226;37.908;2022-10-16T12:28:04;18.78;59.19
74940;HTU21D;63505;45.226;37.908;2022-10-16T12:30:33;18.83;59.18
74940;HTU21D;63505;45.226;37.908;2022-10-16T12:33:15;18.84;59.17
74940;HTU21D;63505;45.226;37.908;2022-10-16T12:35:45;18.83;59.06
74940;HTU21D;63505;45.226;37.908;2022-10-16T12:38:25;18.81;59.17
74940;HTU21D;63505;45.226;37.908;2022-10-16T12:41:04;18.79;59.19
74940;HTU21D;63505;45.226;37.908;2022-10-16T12:43:45;18.77;59.20
74940;HTU21D;63505;45.226;37.908;2022-10-16T12:48:39;18.69;59.28
74940;HTU21D;63505;45.226;37.908;2022-10-16T12:51:34;18.67;59.29
74940;HTU21D;63505;45.226;37.908;2022-10-16T13:08:05;18.56;59.60
74940;HTU21D;63505;45.226;37.908;2022-10-16T13:13:43;18.55;59.72
74940;HTU21D;63505;45.226;37.908;2022-10-16T13:21:54;18.49;59.70
74940;HTU21D;63505;45.226;37.908;2022-10-16T13:25:09;18.41;59.71
74940;HTU21D;63505;45.226;37.908;2022-10-16T13:30:08;18.32;59.89
74940;HTU21D;63505;45.226;37.908;2022-10-16T13:32:36;18.26;59.97
74940;HTU21D;63505;45.226;37.908;2022-10-16T13:35:02;18.23;60.06
74940;HTU21D;63505;45.226;37.908;2022-10-16T13:37:29;18.19;60.20
74940;HTU21D;63505;45.226;37.908;2022-10-16T13:40:19;18.15;60.22
74940;HTU21D;63505;45.226;37.908;2022-10-16T13:42:45;18.12;60.29
74940;HTU21D;63505;45.226;37.908;2022-10-16T13:45:22;18.09;60.29
74940;HTU21D;63505;45.226;37.908;2022-10-16T13:47:49;18.05;60.20
74940;HTU21D;63505;45.226;37.908;2022-10-16T13:50:18;18.00;60.29
74940;HTU21D;63505;45.226;37.908;2022-10-16T13:52:44;17.96;60.32
74940;HTU21D;63505;45.226;37.908;2022-10-16T13:55:14;17.93;60.28
74940;HTU21D;63505;45.226;37.908;2022-10-16T13:57:41;17.89;60.33
74940;HTU21D;63505;45.226;37.908;2022-10-16T14:00:21;17.84;60.38
74940;HTU21D;63505;45.226;37.908;2022-10-16T14:02:53;17.80;60.35
74940;HTU21D;63505;45.226;37.908;2022-10-16T14:05:21;17.76;60.44
74940;HTU21D;63505;45.226;37.908;2022-10-16T14:07:49;17.70;60.54
74940;HTU21D;63505;45.226;37.908;2022-10-16T14:10:34;17.64;60.56
74940;HTU21D;63505;45.226;37.908;2022-10-16T14:13:03;17.61;60.66
74940;HTU21D;63505;45.226;37.908;2022-10-16T14:15:34;17.55;60.74
74940;HTU21D;63505;45.226;37.908;2022-10-16T14:18:01;17.50;60.82
74940;HTU21D;63505;45.226;37.908;2022-10-16T14:20:31;17.45;60.93
74940;HTU21D;63505;45.226;37.908;2022-10-16T14:23:16;17.39;61.02
74940;HTU21D;63505;45.226;37.908;2022-10-16T14:25:44;17.36;61.08
74940;HTU21D;63505;45.226;37.908;2022-10-16T14:28:21;17.32;61.15
74940;HTU21D;63505;45.226;37.908;2022-10-16T14:30:53;17.26;61.32
74940;HTU21D;63505;45.226;37.908;2022-10-16T14:33:24;17.22;61.42
74940;HTU21D;63505;45.226;37.908;2022-10-16T14:36:13;17.18;61.48
74940;HTU21D;63505;45.226;37.908;2022-10-16T14:39:02;17.13;61.57
74940;HTU21D;63505;45.226;37.908;2022-10-16T14:41:31;17.08;61.67
74940;HTU21D;63505;45.226;37.908;2022-10-16T14:44:02;17.02;61.73
74940;HTU21D;63505;45.226;37.908;2022-10-16T14:46:35;16.96;61.73
74940;HTU21D;63505;45.226;37.908;2022-10-16T14:51:38;16.87;61.68
74940;HTU21D;63505;45.226;37.908;2022-10-16T14:54:04;16.81;61.60
74940;HTU21D;63505;45.226;37.908;2022-10-16T14:56:42;16.75;61.60
74940;HTU21D;63505;45.226;37.908;2022-10-16T14:59:17;16.67;61.63
74940;HTU21D;63505;45.226;37.908;2022-10-16T15:01:45;16.60;61.65
74940;HTU21D;63505;45.226;37.908;2022-10-16T15:04:12;16.55;61.67
74940;HTU21D;63505;45.226;37.908;2022-10-16T15:06:38;16.48;61.70
74940;HTU21D;63505;45.226;37.908;2022-10-16T15:09:04;16.43;61.73
74940;HTU21D;63505;45.226;37.908;2022-10-16T15:11:31;16.37;61.76
74940;HTU21D;63505;45.226;37.908;2022-10-16T15:13:58;16.33;61.83
74940;HTU21D;63505;45.226;37.908;2022-10-16T15:16:24;16.28;61.91
74940;HTU21D;63505;45.226;37.908;2022-10-16T15:18:50;16.22;61.96
74940;HTU21D;63505;45.226;37.908;2022-10-16T15:21:28;16.17;62.09
74940;HTU21D;63505;45.226;37.908;2022-10-16T15:23:54;16.13;62.24
74940;HTU21D;63505;45.226;37.908;2022-10-16T15:26:25;16.07;62.40
74940;HTU21D;63505;45.226;37.908;2022-10-16T15:28:52;16.00;62.59
74940;HTU21D;63505;45.226;37.908;2022-10-16T15:31:18;15.96;62.62
74940;HTU21D;63505;45.226;37.908;2022-10-16T15:33:44;15.91;62.63
74940;HTU21D;63505;45.226;37.908;2022-10-16T15:36:13;15.87;62.60
74940;HTU21D;63505;45.226;37.908;2022-10-16T15:38:39;15.84;62.62
74940;HTU21D;63505;45.226;37.908;2022-10-16T15:41:05;15.78;62.61
74940;HTU21D;63505;45.226;37.908;2022-10-16T15:43:30;15.74;62.58
74940;HTU21D;63505;45.226;37.908;2022-10-16T15:46:02;15.71;62.57
74940;HTU21D;63505;45.226;37.908;2022-10-16T15:48:29;15.67;62.58
74940;HTU21D;63505;45.226;37.908;2022-10-16T15:50:56;15.61;62.66
74940;HTU21D;63505;45.226;37.908;2022-10-16T15:53:22;15.57;62.70
74940;HTU21D;63505;45.226;37.908;2022-10-16T15:55:48;15.52;62.79
74940;HTU21D;63505;45.226;37.908;2022-10-16T15:58:14;15.47;62.82
74940;HTU21D;63505;45.226;37.908;2022-10-16T16:00:40;15.44;62.86
74940;HTU21D;63505;45.226;37.908;2022-10-16T16:03:07;15.42;62.93
74940;HTU21D;63505;45.226;37.908;2022-10-16T16:05:37;15.39;63.05
74940;HTU21D;63505;45.226;37.908;2022-10-16T16:08:04;15.34;63.11
74940;HTU21D;63505;45.226;37.908;2022-10-16T16:10:30;15.31;63.18
74940;HTU21D;63505;45.226;37.908;2022-10-16T16:12:56;15.26;63.26
74940;HTU21D;63505;45.226;37.908;2022-10-16T16:15:23;15.25;63.35
74940;HTU21D;63505;45.226;37.908;2022-10-16T16:17:49;15.22;63.41
74940;HTU21D;63505;45.226;37.908;2022-10-16T16:20:15;15.22;63.40
74940;HTU21D;63505;45.226;37.908;2022-10-16T16:22:41;15.17;63.46
74940;HTU21D;63505;45.226;37.908;2022-10-16T16:25:07;15.14;63.55
74940;HTU21D;63505;45.226;37.908;2022-10-16T16:27:34;15.12;63.62
74940;HTU21D;63505;45.226;37.908;2022-10-16T16:30:01;15.07;63.71
74940;HTU21D;63505;45.226;37.908;2022-10-16T16:32:29;15.04;63.83
74940;HTU21D;63505;45.226;37.908;2022-10-16T16:34:55;15.00;63.93
74940;HTU21D;63505;45.226;37.908;2022-10-16T16:37:21;14.97;63.98
74940;HTU21D;63505;45.226;37.908;2022-10-16T16:39:47;14.96;64.00
74940;HTU21D;63505;45.226;37.908;2022-10-16T16:42:13;14.95;64.01
74940;HTU21D;63505;45.226;37.908;2022-10-16T16:44:39;14.92;64.08
74940;HTU21D;63505;45.226;37.908;2022-10-16T16:47:05;14.89;64.14
74940;HTU21D;63505;45.226;37.908;2022-10-16T16:49:31;14.85;64.26
74940;HTU21D;63505;45.226;37.908;2022-10-16T16:51:57;14.83;64.34
74940;HTU21D;63505;45.226;37.908;2022-10-16T16:54:23;14.80;64.46
74940;HTU21D;63505;45.226;37.908;2022-10-16T16:56:49;14.81;64.53
74940;HTU21D;63505;45.226;37.908;2022-10-16T16:59:20;14.80;64.54
74940;HTU21D;63505;45.226;37.908;2022-10-16T17:01:48;14.79;64.55